Pagrindinis puslapis
METAR-TAF:

METAR-TAF

Oro uostai :

Gage, Oklahoma, Jungtinės Amerikos Valstijos

platuma: 36-17-48N, ilguma: 099-46-08W, Aukštis: 677 m

Dabartinis oras

Ataskaita buvo paskelbta 58 minutes, ne 10:53 UTC
Ramus vėjas
Temperatūra 12°C
Drėgmė 94%
Slėgis 1023 hPa
Matomumas: 16.1 km
Giedras dangus

METAR: KGAG 291053Z AUTO 00000KT 10SM CLR 12/11 A3021 RMK AO2 SLP213 T01170111

Laikas: 06:51 (11:51 UTC)


TAF: trūkstamas

Orai ataskaitas ir orų prognozės (METAR, TAF).

turimą stotys yra geltonos ir raudonos taškus žemėlapyje.

Perkelti pele per norėdami pamatyti stoties vardą.

Tada spustelėkite, norėdami matyti oro stebėjimo ir prognozės.

Norėdami pakeisti žemėlapį: spustelėkite ant žalios mygtukų su juodo kryžiaus žemyn,; žalią mygtuką su brūkšneliu, jei norite nutolinti; arba žalių rodyklių gretimoms žemėlapius.


METAR-TAF: